createdAt,value
2018-07-20T00:00:43.157Z,51.03
2018-07-20T00:01:43.334Z,48.58
2018-07-20T00:02:43.512Z,57.37
2018-07-20T00:03:43.697Z,51.76
2018-07-20T00:04:43.878Z,64.45
2018-07-20T00:05:44.062Z,49.32
2018-07-20T00:06:44.246Z,48.34
2018-07-20T00:07:44.418Z,50.54
2018-07-20T00:08:44.603Z,49.80
2018-07-20T00:09:44.788Z,59.33
2018-07-20T00:10:44.965Z,54.20
2018-07-20T00:11:45.140Z,52.49
2018-07-20T00:12:45.321Z,53.22
2018-07-20T00:13:45.497Z,48.10
2018-07-20T00:14:45.678Z,57.37
2018-07-20T00:15:45.866Z,49.56
2018-07-20T00:16:46.129Z,48.34
2018-07-20T00:17:46.213Z,48.83
2018-07-20T00:18:46.390Z,48.34
2018-07-20T00:19:46.570Z,54.20
2018-07-20T00:20:46.768Z,58.84
2018-07-20T00:21:46.927Z,50.29
2018-07-20T00:22:47.110Z,49.07
2018-07-20T00:23:47.291Z,50.29
2018-07-20T00:24:47.475Z,56.88
2018-07-20T00:25:47.664Z,86.18
2018-07-20T00:26:47.845Z,50.78
2018-07-20T00:27:48.028Z,48.58
2018-07-20T00:28:48.213Z,54.44
2018-07-20T00:29:48.400Z,59.33
2018-07-20T00:30:48.569Z,48.58
2018-07-20T00:31:48.746Z,49.80
2018-07-20T00:32:48.927Z,47.36
2018-07-20T00:33:49.107Z,50.29
2018-07-20T00:34:49.289Z,48.34
2018-07-20T00:35:49.474Z,48.34
2018-07-20T00:36:49.651Z,56.64
2018-07-20T00:37:49.833Z,63.23
2018-07-20T00:38:50.014Z,55.42
2018-07-20T00:39:50.442Z,54.69
2018-07-20T00:40:50.376Z,49.32
2018-07-20T00:41:50.556Z,55.18
2018-07-20T00:42:50.731Z,49.56
2018-07-20T00:43:50.924Z,48.34
2018-07-20T00:44:51.099Z,50.54
2018-07-20T00:45:51.287Z,50.54
2018-07-20T00:46:51.463Z,48.34
2018-07-20T00:47:51.641Z,48.58
2018-07-20T00:48:51.823Z,50.54
2018-07-20T00:49:52.007Z,48.83
2018-07-20T00:50:52.185Z,56.15
2018-07-20T00:51:52.364Z,51.03
2018-07-20T00:52:52.545Z,51.03
2018-07-20T00:53:52.719Z,52.25
2018-07-20T00:54:52.900Z,51.03
2018-07-20T00:55:53.074Z,57.13
2018-07-20T00:56:53.261Z,50.29
2018-07-20T00:57:53.441Z,61.77
2018-07-20T00:58:53.621Z,47.85
2018-07-20T00:59:53.805Z,48.83
2018-07-20T01:00:53.993Z,50.54
2018-07-20T01:01:54.176Z,49.80
2018-07-20T01:02:54.355Z,55.42
2018-07-20T01:03:54.528Z,50.54
2018-07-20T01:04:54.709Z,54.69
2018-07-20T01:05:54.883Z,48.58
2018-07-20T01:06:55.073Z,51.76
2018-07-20T01:07:55.251Z,52.73
2018-07-20T01:08:55.434Z,51.76
2018-07-20T01:09:55.621Z,58.84
2018-07-20T01:10:55.813Z,52.73
2018-07-20T01:11:55.981Z,51.51
2018-07-20T01:12:56.163Z,51.03
2018-07-20T01:13:56.344Z,51.76
2018-07-20T01:14:56.520Z,56.64
2018-07-20T01:15:56.700Z,59.57
2018-07-20T01:16:56.885Z,55.66
2018-07-20T01:17:57.060Z,52.49
2018-07-20T01:18:57.233Z,50.54
2018-07-20T01:19:57.423Z,60.30
2018-07-20T01:20:57.608Z,61.28
2018-07-20T01:21:57.790Z,58.35
2018-07-20T01:22:57.975Z,56.64
2018-07-20T01:23:58.143Z,51.03
2018-07-20T01:24:58.324Z,50.05
2018-07-20T01:25:58.504Z,48.10
2018-07-20T01:26:58.683Z,48.83
2018-07-20T01:27:58.865Z,47.61
2018-07-20T01:28:59.047Z,48.83
2018-07-20T01:29:59.239Z,57.37
2018-07-20T01:30:59.412Z,52.49
2018-07-20T01:31:59.587Z,58.84
2018-07-20T01:32:59.766Z,46.88
2018-07-20T01:33:59.956Z,48.58
2018-07-20T01:35:00.129Z,59.33
2018-07-20T01:36:00.308Z,50.54
2018-07-20T01:37:00.491Z,48.34
2018-07-20T01:38:00.671Z,47.61
2018-07-20T01:39:00.849Z,59.08
2018-07-20T01:40:01.032Z,61.04
2018-07-20T01:41:01.207Z,63.96
2018-07-20T01:42:01.381Z,48.58
2018-07-20T01:43:01.574Z,49.07
2018-07-20T01:44:01.748Z,55.66
2018-07-20T01:45:01.933Z,49.07
2018-07-20T01:46:02.111Z,48.58
2018-07-20T01:47:02.290Z,49.32
2018-07-20T01:48:02.480Z,50.54
2018-07-20T01:49:02.652Z,50.29
2018-07-20T01:50:02.843Z,50.29
2018-07-20T01:51:03.012Z,52.00
2018-07-20T01:52:03.191Z,49.07
2018-07-20T01:53:03.376Z,47.85
2018-07-20T01:54:03.554Z,48.10
2018-07-20T01:55:03.737Z,61.77
2018-07-20T01:56:03.920Z,50.78
2018-07-20T01:57:04.096Z,60.06
2018-07-20T01:58:04.278Z,48.83
2018-07-20T01:59:04.458Z,49.80
2018-07-20T02:00:04.647Z,57.13
2018-07-20T02:01:04.817Z,49.32
2018-07-20T02:02:04.998Z,51.03
2018-07-20T02:03:05.186Z,48.34
2018-07-20T02:04:05.364Z,48.10
2018-07-20T02:05:05.544Z,46.88
2018-07-20T02:06:05.736Z,63.96
2018-07-20T02:07:05.905Z,48.58
2018-07-20T02:09:06.260Z,55.66
2018-07-20T02:10:06.444Z,49.32
2018-07-20T02:11:06.624Z,58.11
2018-07-20T02:12:06.805Z,53.22
2018-07-20T02:13:06.982Z,49.07
2018-07-20T02:14:07.171Z,49.56
2018-07-20T02:15:07.343Z,59.81
2018-07-20T02:16:07.528Z,47.36
2018-07-20T02:17:07.723Z,49.32
2018-07-20T02:18:07.895Z,48.83
2018-07-20T02:19:08.076Z,50.78
2018-07-20T02:20:08.264Z,50.05
2018-07-20T02:21:08.441Z,52.73
2018-07-20T02:22:08.622Z,52.49
2018-07-20T02:23:08.839Z,49.07
2018-07-20T02:24:08.981Z,48.10
2018-07-20T02:25:09.155Z,48.83
2018-07-20T02:26:09.335Z,52.25
2018-07-20T02:27:09.519Z,52.00
2018-07-20T02:28:09.696Z,55.18
2018-07-20T02:29:09.876Z,59.57
2018-07-20T02:30:10.055Z,50.54
2018-07-20T02:31:10.233Z,48.83
2018-07-20T02:32:10.423Z,49.80
2018-07-20T02:33:10.593Z,55.66
2018-07-20T02:34:10.773Z,47.36
2018-07-20T02:35:10.956Z,48.83
2018-07-20T02:36:11.139Z,50.05
2018-07-20T02:37:11.327Z,53.71
2018-07-20T02:38:11.499Z,59.08
2018-07-20T02:39:11.684Z,52.98
2018-07-20T02:40:11.863Z,62.01
2018-07-20T02:41:12.039Z,60.55
2018-07-20T02:43:12.396Z,63.23
2018-07-20T02:44:12.591Z,53.47
2018-07-20T02:45:12.762Z,50.78
2018-07-20T02:46:12.951Z,57.13
2018-07-20T02:47:13.117Z,54.69
2018-07-20T02:48:13.304Z,49.32
2018-07-20T02:49:13.797Z,52.73
2018-07-20T02:50:13.664Z,48.83
2018-07-20T02:51:13.839Z,48.83
2018-07-20T02:52:14.051Z,49.07
2018-07-20T02:53:14.190Z,48.34
2018-07-20T02:54:14.374Z,51.03
2018-07-20T02:55:14.551Z,49.56
2018-07-20T02:56:14.732Z,49.32
2018-07-20T02:57:14.912Z,55.91
2018-07-20T02:58:15.082Z,49.80
2018-07-20T02:59:15.263Z,47.85
2018-07-20T03:00:15.446Z,47.85
2018-07-20T03:01:15.621Z,48.34
2018-07-20T03:02:15.810Z,53.71
2018-07-20T03:03:15.976Z,54.44
2018-07-20T03:04:16.164Z,49.32
2018-07-20T03:05:16.351Z,62.26
2018-07-20T03:06:16.531Z,60.06
2018-07-20T03:07:16.723Z,57.62
2018-07-20T03:08:16.894Z,52.25
2018-07-20T03:09:17.072Z,48.10
2018-07-20T03:10:17.251Z,52.49
2018-07-20T03:11:17.435Z,53.71
2018-07-20T03:12:17.613Z,53.96
2018-07-20T03:13:17.795Z,56.64
2018-07-20T03:14:17.974Z,55.66
2018-07-20T03:15:18.160Z,56.64
2018-07-20T03:16:18.624Z,61.04
2018-07-20T03:17:18.515Z,56.40
2018-07-20T03:18:18.694Z,62.74
2018-07-20T03:19:18.878Z,49.32
2018-07-20T03:20:19.057Z,49.56
2018-07-20T03:21:19.235Z,50.78
2018-07-20T03:22:19.415Z,56.64
2018-07-20T03:23:19.596Z,51.27
2018-07-20T03:24:20.273Z,52.00
2018-07-20T03:25:19.938Z,52.73
2018-07-20T03:26:20.123Z,55.18
2018-07-20T03:27:20.318Z,58.11
2018-07-20T03:28:20.478Z,57.13
2018-07-20T03:29:20.661Z,56.64
2018-07-20T03:30:20.852Z,60.55
2018-07-20T03:31:21.023Z,58.59
2018-07-20T03:32:21.216Z,60.79
2018-07-20T03:33:21.395Z,55.66
2018-07-20T03:34:21.568Z,59.33
2018-07-20T03:35:21.747Z,62.50
2018-07-20T03:36:21.941Z,63.48
2018-07-20T03:37:22.111Z,59.33
2018-07-20T03:38:22.287Z,60.30
2018-07-20T03:39:22.467Z,59.57
2018-07-20T03:40:22.654Z,63.72
2018-07-20T03:41:22.819Z,66.65
2018-07-20T03:42:23.001Z,62.01
2018-07-20T03:43:23.173Z,68.12
2018-07-20T03:44:23.359Z,60.30
2018-07-20T03:45:23.522Z,56.64
2018-07-20T03:46:23.695Z,60.30
2018-07-20T03:47:23.923Z,55.91
2018-07-20T03:48:24.043Z,56.64
2018-07-20T03:49:24.224Z,56.40
2018-07-20T03:50:24.400Z,54.44
2018-07-20T03:51:24.582Z,56.64
2018-07-20T03:52:24.766Z,57.62
2018-07-20T03:53:24.941Z,64.21
2018-07-20T03:54:25.125Z,59.33
2018-07-20T03:55:25.297Z,60.06
2018-07-20T03:56:25.484Z,74.71
2018-07-20T03:57:25.668Z,60.79
2018-07-20T03:58:25.845Z,73.97
2018-07-20T03:59:26.025Z,62.74
2018-07-20T04:00:26.460Z,65.67
2018-07-20T04:01:26.367Z,55.42
2018-07-20T04:02:26.621Z,55.42
2018-07-20T04:03:26.868Z,56.88
2018-07-20T04:04:26.994Z,56.15
2018-07-20T04:05:27.162Z,60.30
2018-07-20T04:06:27.854Z,55.18
2018-07-20T04:07:27.661Z,67.87
2018-07-20T04:08:27.748Z,61.28
2018-07-20T04:09:27.922Z,54.69
2018-07-20T04:10:28.108Z,66.65
2018-07-20T04:11:28.289Z,56.40
2018-07-20T04:12:28.470Z,54.93
2018-07-20T04:13:28.657Z,50.05
2018-07-20T04:14:28.828Z,65.19
2018-07-20T04:15:29.011Z,66.89
2018-07-20T04:16:29.185Z,52.25
2018-07-20T04:17:29.370Z,63.48
2018-07-20T04:18:29.547Z,58.11
2018-07-20T04:19:29.726Z,63.96
2018-07-20T04:20:29.908Z,62.01
2018-07-20T04:21:30.094Z,55.91
2018-07-20T04:22:30.268Z,58.35
2018-07-20T04:23:30.457Z,62.50
2018-07-20T04:24:30.871Z,66.41
2018-07-20T04:25:30.810Z,68.60
2018-07-20T04:26:30.989Z,62.50
2018-07-20T04:27:31.168Z,67.38
2018-07-20T04:28:31.356Z,71.78
2018-07-20T04:29:31.530Z,65.67
2018-07-20T04:30:31.716Z,64.94
2018-07-20T04:31:31.894Z,68.12
2018-07-20T04:32:32.071Z,69.09
2018-07-20T04:33:32.251Z,63.72
2018-07-20T04:34:32.438Z,63.48
2018-07-20T04:35:32.625Z,61.04
2018-07-20T04:36:32.971Z,55.42
2018-07-20T04:37:32.984Z,59.81
2018-07-20T04:38:33.155Z,58.35
2018-07-20T04:39:33.338Z,62.50
2018-07-20T04:40:33.523Z,57.62
2018-07-20T04:41:33.705Z,64.94
2018-07-20T04:42:33.891Z,66.41
2018-07-20T04:43:34.070Z,63.48
2018-07-20T04:44:34.251Z,56.64
2018-07-20T04:45:34.484Z,69.09
2018-07-20T04:46:34.621Z,62.99
2018-07-20T04:47:34.808Z,63.48
2018-07-20T04:48:35.006Z,68.12
2018-07-20T04:49:35.192Z,82.03
2018-07-20T04:50:35.368Z,65.19
2018-07-20T04:51:35.558Z,61.52
2018-07-20T04:52:35.744Z,56.88
2018-07-20T04:53:35.932Z,62.50
2018-07-20T04:54:36.117Z,64.94
2018-07-20T04:55:36.310Z,71.53
2018-07-20T04:56:36.490Z,57.13
2018-07-20T04:57:36.683Z,65.19
2018-07-20T04:58:36.856Z,69.09
2018-07-20T04:59:37.054Z,67.38
2018-07-20T05:00:37.230Z,67.87
2018-07-20T05:01:37.413Z,76.90
2018-07-20T05:02:37.610Z,78.13
2018-07-20T05:03:37.834Z,80.32
2018-07-20T05:04:37.981Z,78.13
2018-07-20T05:05:38.175Z,76.42
2018-07-20T05:06:38.354Z,78.13
2018-07-20T05:07:38.541Z,61.28
2018-07-20T05:08:38.726Z,52.98
2018-07-20T05:09:38.917Z,55.66
2018-07-20T05:10:39.104Z,59.81
2018-07-20T05:11:39.300Z,65.19
2018-07-20T05:12:39.477Z,66.16
2018-07-20T05:13:39.668Z,80.32
2018-07-20T05:14:39.858Z,66.16
2018-07-20T05:15:40.038Z,65.43
2018-07-20T05:16:40.254Z,72.02
2018-07-20T05:17:40.442Z,64.45
2018-07-20T05:18:40.636Z,63.72
2018-07-20T05:19:40.823Z,70.80
2018-07-20T05:20:41.010Z,68.60
2018-07-20T05:21:41.197Z,68.85
2018-07-20T05:22:41.417Z,67.38
2018-07-20T05:23:41.573Z,72.27
2018-07-20T05:24:41.762Z,66.65
2018-07-20T05:25:41.952Z,73.00
2018-07-20T05:26:42.144Z,58.84
2018-07-20T05:27:42.331Z,78.61
2018-07-20T05:28:42.518Z,69.58
2018-07-20T05:29:42.707Z,67.14
2018-07-20T05:30:42.902Z,67.14
2018-07-20T05:31:43.085Z,75.44
2018-07-20T05:32:43.372Z,77.39
2018-07-20T05:33:43.469Z,74.46
2018-07-20T05:34:43.660Z,69.09
2018-07-20T05:35:43.843Z,66.16
2018-07-20T05:36:44.039Z,63.96
2018-07-20T05:37:44.228Z,73.97
2018-07-20T05:38:44.419Z,79.35
2018-07-20T05:39:44.616Z,63.48
2018-07-20T05:40:44.799Z,71.29
2018-07-20T05:41:44.989Z,62.50
2018-07-20T05:42:45.177Z,60.55
2018-07-20T05:43:45.365Z,63.96
2018-07-20T05:44:45.568Z,75.93
2018-07-20T05:45:45.753Z,65.43
2018-07-20T05:46:45.982Z,58.84
2018-07-20T05:47:46.363Z,62.50
2018-07-20T05:48:46.325Z,60.79
2018-07-20T05:49:46.506Z,72.75
2018-07-20T05:50:46.697Z,59.08
2018-07-20T05:51:46.896Z,70.80
2018-07-20T05:52:47.080Z,58.11
2018-07-20T05:53:47.269Z,59.57
2018-07-20T05:54:47.457Z,63.72
2018-07-20T05:55:47.647Z,64.45
2018-07-20T05:56:47.849Z,74.95
2018-07-20T05:57:48.027Z,65.19
2018-07-20T05:58:48.228Z,68.85
2018-07-20T05:59:48.413Z,61.04
2018-07-20T06:00:48.612Z,73.73
2018-07-20T06:01:48.785Z,64.70
2018-07-20T06:02:48.999Z,63.96
2018-07-20T06:03:49.184Z,57.86
2018-07-20T06:04:49.369Z,59.33
2018-07-20T06:05:50.398Z,57.62
2018-07-20T06:06:49.726Z,62.50
2018-07-20T06:07:49.904Z,58.11
2018-07-20T06:09:50.301Z,62.74
2018-07-20T06:10:50.459Z,68.85
2018-07-20T06:11:50.643Z,60.30
2018-07-20T06:12:50.858Z,66.16
2018-07-20T06:13:51.037Z,60.30
2018-07-20T06:14:51.236Z,64.21
2018-07-20T06:15:51.419Z,63.48
2018-07-20T06:16:51.615Z,60.06
2018-07-20T06:17:51.797Z,67.63
2018-07-20T06:18:51.996Z,69.34
2018-07-20T06:19:52.186Z,59.81
2018-07-20T06:20:52.366Z,70.31
2018-07-20T06:21:52.558Z,68.36
2018-07-20T06:22:53.165Z,59.33
2018-07-20T06:23:53.054Z,59.33
2018-07-20T06:24:53.179Z,60.79
2018-07-20T06:25:53.374Z,66.16
2018-07-20T06:26:53.563Z,66.89
2018-07-20T06:27:53.745Z,64.94
2018-07-20T06:28:53.942Z,66.16
2018-07-20T06:30:54.307Z,67.63
2018-07-20T06:31:54.496Z,61.28
2018-07-20T06:32:54.681Z,69.82
2018-07-20T06:33:54.874Z,61.77
2018-07-20T06:34:55.147Z,65.43
2018-07-20T06:35:55.302Z,60.06
2018-07-20T06:36:55.481Z,68.12
2018-07-20T06:37:55.693Z,71.29
2018-07-20T06:38:55.878Z,71.29
2018-07-20T06:39:56.069Z,60.30
2018-07-20T06:40:56.632Z,62.50
2018-07-20T06:41:56.454Z,63.48
2018-07-20T06:42:56.643Z,69.82
2018-07-20T06:43:56.857Z,72.27
2018-07-20T06:44:57.011Z,71.04
2018-07-20T06:45:57.209Z,62.01
2018-07-20T06:46:57.398Z,62.01
2018-07-20T06:47:57.596Z,73.00
2018-07-20T06:48:57.786Z,67.87
2018-07-20T06:49:57.978Z,65.67
2018-07-20T06:51:58.445Z,60.30
2018-07-20T06:52:58.497Z,62.26
2018-07-20T06:53:58.803Z,64.70
2018-07-20T06:54:58.866Z,59.08
2018-07-20T06:55:59.141Z,58.11
2018-07-20T06:56:59.241Z,60.06
2018-07-20T06:57:59.495Z,59.81
2018-07-20T06:58:59.598Z,62.99
2018-07-20T06:59:59.774Z,66.41
2018-07-20T07:00:59.957Z,62.74
2018-07-20T07:02:00.265Z,62.26
2018-07-20T07:03:00.324Z,61.04
2018-07-20T07:04:00.619Z,60.55
2018-07-20T07:05:00.719Z,59.08
2018-07-20T07:06:00.968Z,61.77
2018-07-20T07:07:03.221Z,61.28
2018-07-20T07:08:01.383Z,76.42
2018-07-20T07:09:03.160Z,63.23
2018-07-20T07:10:01.944Z,67.38
2018-07-20T07:11:02.710Z,62.74
2018-07-20T07:12:02.290Z,62.50
2018-07-20T07:13:02.392Z,59.57
2018-07-20T07:14:02.677Z,59.57
2018-07-20T07:15:02.672Z,68.60
2018-07-20T07:16:03.030Z,60.79
2018-07-20T07:17:03.148Z,58.59
2018-07-20T07:18:03.678Z,58.35
2018-07-20T07:19:05.206Z,60.06
2018-07-20T07:20:04.367Z,61.52
2018-07-20T07:21:05.386Z,60.79
2018-07-20T07:22:08.519Z,58.84
2018-07-20T07:23:04.557Z,70.07
2018-07-20T07:24:06.257Z,58.59
2018-07-20T07:25:05.015Z,61.28
2018-07-20T07:26:05.224Z,61.77
2018-07-20T07:27:05.373Z,62.50
2018-07-20T07:28:05.876Z,60.79
2018-07-20T07:29:06.017Z,65.19
2018-07-20T07:30:07.354Z,66.89
2018-07-20T07:31:06.970Z,63.48
2018-07-20T07:32:09.998Z,63.48
2018-07-20T07:33:23.159Z,66.89
2018-07-20T07:34:06.895Z,58.11
2018-07-20T07:35:06.894Z,62.50
2018-07-20T07:36:06.797Z,72.27
2018-07-20T07:37:06.987Z,68.36
2018-07-20T07:38:07.171Z,60.55
2018-07-20T07:39:07.319Z,62.26
2018-07-20T07:40:07.514Z,61.77
2018-07-20T07:41:07.696Z,60.30
2018-07-20T07:42:07.897Z,63.96
2018-07-20T07:43:08.039Z,61.28
2018-07-20T07:44:08.565Z,63.23
2018-07-20T07:45:08.604Z,62.99
2018-07-20T07:46:08.574Z,62.74
2018-07-20T07:47:08.843Z,62.99
2018-07-20T07:48:08.987Z,62.26
2018-07-20T07:49:09.390Z,76.66
2018-07-20T07:50:09.617Z,65.92
2018-07-20T07:51:10.099Z,62.01
2018-07-20T07:52:12.726Z,58.84
2018-07-20T07:53:11.262Z,61.77
2018-07-20T07:54:13.660Z,61.77
2018-07-20T07:55:22.070Z,61.04
2018-07-20T07:56:45.209Z,61.28
2018-07-20T07:57:16.624Z,58.59
2018-07-20T07:59:13.710Z,62.50
2018-07-20T08:01:15.244Z,62.50
2018-07-20T08:13:45.902Z,59.57
2018-07-20T08:14:49.502Z,59.81
2018-07-20T08:15:47.030Z,64.45
2018-07-20T08:16:46.421Z,60.55
2018-07-20T08:17:46.635Z,59.33
2018-07-20T08:18:46.824Z,62.01
2018-07-20T08:19:46.983Z,58.59
2018-07-20T08:20:47.168Z,58.35
2018-07-20T08:21:47.384Z,61.04
2018-07-20T08:22:48.640Z,58.59
2018-07-20T08:23:50.084Z,62.01
2018-07-20T08:24:49.410Z,66.89
2018-07-20T08:25:48.229Z,63.48
2018-07-20T08:26:50.564Z,69.82
2018-07-20T08:27:48.620Z,62.50
2018-07-20T08:28:50.204Z,62.99
2018-07-20T08:29:48.992Z,59.57
2018-07-20T08:30:49.165Z,64.21
2018-07-20T08:31:49.802Z,62.99
2018-07-20T08:32:50.995Z,65.19
2018-07-20T08:33:49.823Z,62.74
2018-07-20T08:34:50.005Z,60.06
2018-07-20T08:35:50.156Z,58.35
2018-07-20T08:36:50.356Z,58.59
2018-07-20T08:37:51.882Z,61.04
2018-07-20T08:38:50.715Z,62.74
2018-07-20T08:39:50.872Z,63.48
2018-07-20T08:40:51.061Z,69.58
2018-07-20T08:41:51.225Z,60.30
2018-07-20T08:42:51.577Z,61.28
2018-07-20T08:43:52.702Z,71.53
2018-07-20T08:44:52.544Z,72.02
2018-07-20T08:45:54.007Z,61.77
2018-07-20T08:46:52.984Z,61.52
2018-07-20T08:47:54.058Z,62.50
2018-07-20T08:48:53.513Z,59.33
2018-07-20T08:49:54.865Z,58.35
2018-07-20T08:50:54.260Z,66.65
2018-07-20T08:51:53.353Z,61.52
2018-07-20T08:52:53.478Z,61.04
2018-07-20T08:53:53.730Z,60.30
2018-07-20T08:54:54.131Z,62.50
2018-07-20T08:55:55.325Z,61.28
2018-07-20T08:56:54.404Z,60.30
2018-07-20T08:57:54.540Z,68.12
2018-07-20T08:58:54.531Z,62.01
2018-07-20T08:59:57.124Z,68.36
2018-07-20T09:00:54.942Z,63.48
2018-07-20T09:01:55.102Z,62.01
2018-07-20T09:02:55.347Z,67.63
2018-07-20T09:03:55.544Z,71.78
2018-07-20T09:04:55.855Z,63.48
2018-07-20T09:05:56.124Z,61.04
2018-07-20T09:06:56.663Z,62.26
2018-07-20T09:07:56.424Z,58.59
2018-07-20T09:08:56.609Z,58.84
2018-07-20T09:09:56.912Z,59.81
2018-07-20T09:10:56.990Z,59.33
2018-07-20T09:11:57.174Z,62.26
2018-07-20T09:12:57.723Z,60.79
2018-07-20T09:13:57.676Z,62.50
2018-07-20T09:14:57.746Z,63.96
2018-07-20T09:15:57.955Z,66.65
2018-07-20T09:16:58.180Z,57.86
2018-07-20T09:17:58.340Z,60.79
2018-07-20T09:18:58.615Z,60.79
2018-07-20T09:19:58.829Z,57.62
2018-07-20T09:20:59.019Z,60.30
2018-07-20T09:21:59.099Z,62.50
2018-07-20T09:22:59.452Z,61.77
2018-07-20T09:23:59.679Z,58.59
2018-07-20T09:24:59.771Z,58.59
2018-07-20T09:25:59.974Z,59.33
2018-07-20T09:27:00.128Z,63.72
2018-07-20T09:28:00.297Z,63.72
2018-07-20T09:29:00.504Z,59.08
2018-07-20T09:30:00.710Z,61.52
2018-07-20T09:31:01.150Z,59.08
2018-07-20T09:32:02.316Z,61.52
2018-07-20T09:33:01.254Z,58.84
2018-07-20T09:34:01.495Z,62.50
2018-07-20T09:35:02.175Z,58.59
2018-07-20T09:36:01.826Z,61.52
2018-07-20T09:37:02.079Z,61.04
2018-07-20T09:38:02.266Z,62.01
2018-07-20T09:39:02.381Z,62.01
2018-07-20T09:40:02.586Z,68.60
2018-07-20T09:41:02.873Z,63.23
2018-07-20T09:42:03.049Z,61.52
2018-07-20T09:43:03.439Z,61.52
2018-07-20T09:44:03.391Z,64.21
2018-07-20T09:45:03.542Z,73.73
2018-07-20T09:46:03.757Z,62.99
2018-07-20T09:47:03.990Z,61.04
2018-07-20T09:48:04.097Z,59.57
2018-07-20T09:49:04.522Z,75.93
2018-07-20T09:50:04.549Z,60.30
2018-07-20T09:51:04.665Z,63.23
2018-07-20T09:52:04.841Z,58.84
2018-07-20T09:53:05.096Z,62.01
2018-07-20T09:54:05.330Z,57.37
2018-07-20T09:55:06.359Z,64.45
2018-07-20T09:56:05.730Z,66.41
2018-07-20T09:57:05.818Z,63.23
2018-07-20T09:58:06.313Z,62.01
2018-07-20T09:59:06.186Z,65.19
2018-07-20T10:00:08.281Z,65.19
2018-07-20T10:01:08.079Z,75.44
2018-07-20T10:02:08.641Z,77.15
2018-07-20T10:03:07.079Z,78.37
2018-07-20T10:04:07.628Z,76.90
2018-07-20T10:05:07.793Z,78.86
2018-07-20T10:06:08.366Z,77.88
2018-07-20T10:07:07.710Z,65.19
2018-07-20T10:08:07.883Z,67.38
2018-07-20T10:09:08.040Z,60.30
2018-07-20T10:10:08.259Z,59.81
2018-07-20T10:11:08.451Z,65.19
2018-07-20T10:12:08.651Z,64.70
2018-07-20T10:13:08.851Z,63.23
2018-07-20T10:14:09.016Z,63.96
2018-07-20T10:15:09.193Z,65.19
2018-07-20T10:16:09.404Z,62.26
2018-07-20T10:17:09.551Z,58.84
2018-07-20T10:18:09.798Z,66.65
2018-07-20T10:19:10.056Z,61.04
2018-07-20T10:21:10.365Z,59.81
2018-07-20T10:22:10.537Z,71.53
2018-07-20T10:23:10.723Z,63.96
2018-07-20T10:24:10.906Z,62.50
2018-07-20T10:25:11.086Z,61.28
2018-07-20T10:26:11.272Z,58.35
2018-07-20T10:27:11.453Z,65.43
2018-07-20T10:28:11.637Z,68.36
2018-07-20T10:29:11.822Z,56.88
2018-07-20T10:30:12.012Z,62.99
2018-07-20T10:31:12.195Z,64.70
2018-07-20T10:32:12.424Z,61.52
2018-07-20T10:33:12.588Z,61.77
2018-07-20T10:34:12.764Z,65.19
2018-07-20T10:35:12.940Z,58.35
2018-07-20T10:36:13.137Z,64.70
2018-07-20T10:37:13.301Z,59.08
2018-07-20T10:38:13.513Z,68.12
2018-07-20T10:39:13.678Z,59.81
2018-07-20T10:40:13.857Z,59.08
2018-07-20T10:41:14.038Z,60.79
2018-07-20T10:42:14.243Z,63.96
2018-07-20T10:43:14.457Z,57.37
2018-07-20T10:44:14.585Z,58.11
2018-07-20T10:45:14.773Z,62.74
2018-07-20T10:46:14.967Z,58.84
2018-07-20T10:47:15.168Z,65.92
2018-07-20T10:48:15.352Z,75.20
2018-07-20T10:49:15.536Z,62.99
2018-07-20T10:50:15.723Z,58.35
2018-07-20T10:51:15.909Z,61.04
2018-07-20T10:52:16.099Z,60.55
2018-07-20T10:53:16.289Z,60.06
2018-07-20T10:54:16.484Z,59.81
2018-07-20T10:55:16.686Z,65.43
2018-07-20T10:56:16.887Z,62.99
2018-07-20T10:57:17.065Z,57.62
2018-07-20T10:58:17.249Z,55.91
2018-07-20T10:59:17.425Z,60.30
2018-07-20T11:00:17.601Z,62.26
2018-07-20T11:01:17.820Z,64.70
2018-07-20T11:02:17.982Z,64.21
2018-07-20T11:03:18.168Z,59.57
2018-07-20T11:04:18.341Z,61.28
2018-07-20T11:05:18.545Z,63.96
2018-07-20T11:06:18.707Z,61.28
2018-07-20T11:07:18.914Z,66.16
2018-07-20T11:08:19.073Z,60.30
2018-07-20T11:09:19.267Z,82.52
2018-07-20T11:10:19.470Z,68.36
2018-07-20T11:11:19.619Z,58.59
2018-07-20T11:12:19.813Z,60.30
2018-07-20T11:13:20.007Z,62.26
2018-07-20T11:14:20.169Z,68.12
2018-07-20T11:15:20.350Z,63.72
2018-07-20T11:16:20.553Z,58.84
2018-07-20T11:17:20.743Z,62.01
2018-07-20T11:18:20.932Z,62.26
2018-07-20T11:19:21.101Z,61.52
2018-07-20T11:20:21.342Z,56.40
2018-07-20T11:21:21.484Z,65.67
2018-07-20T11:22:21.681Z,63.23
2018-07-20T11:23:21.835Z,63.72
2018-07-20T11:24:22.035Z,63.23
2018-07-20T11:25:22.207Z,57.62
2018-07-20T11:26:22.427Z,65.92
2018-07-20T11:27:22.585Z,61.28
2018-07-20T11:28:22.780Z,66.65
2018-07-20T11:29:22.921Z,67.63
2018-07-20T11:30:23.115Z,72.27
2018-07-20T11:31:23.296Z,73.97
2018-07-20T11:32:23.491Z,65.92
2018-07-20T11:33:23.683Z,72.02
2018-07-20T11:34:23.847Z,65.67
2018-07-20T11:35:24.025Z,63.96
2018-07-20T11:36:24.601Z,61.52
2018-07-20T11:37:24.411Z,62.74
2018-07-20T11:38:24.597Z,67.14
2018-07-20T11:39:24.776Z,67.87
2018-07-20T11:40:24.975Z,57.62
2018-07-20T11:41:25.186Z,68.12
2018-07-20T11:42:25.373Z,64.70
2018-07-20T11:43:25.556Z,68.36
2018-07-20T11:44:25.744Z,62.01
2018-07-20T11:45:25.934Z,62.01
2018-07-20T11:46:26.145Z,62.50
2018-07-20T11:47:26.307Z,66.89
2018-07-20T11:48:26.491Z,63.72
2018-07-20T11:49:26.686Z,67.14
2018-07-20T11:50:26.865Z,64.45
2018-07-20T11:51:27.054Z,65.19
2018-07-20T11:52:27.234Z,61.52
2018-07-20T11:53:27.414Z,76.42
2018-07-20T11:54:27.608Z,63.23
2018-07-20T11:55:27.792Z,66.65
2018-07-20T11:56:27.979Z,62.50
2018-07-20T11:57:28.430Z,65.43
2018-07-20T11:58:28.366Z,64.45
2018-07-20T11:59:28.523Z,62.50
2018-07-20T12:00:28.755Z,69.58
2018-07-20T12:01:28.897Z,60.30
2018-07-20T12:02:29.080Z,62.74
2018-07-20T12:03:29.260Z,70.56
2018-07-20T12:04:29.444Z,69.09
2018-07-20T12:05:29.636Z,63.96
2018-07-20T12:06:29.826Z,59.57
2018-07-20T12:07:30.012Z,68.60
2018-07-20T12:08:30.183Z,64.94
2018-07-20T12:09:30.382Z,66.16
2018-07-20T12:10:30.570Z,68.85
2018-07-20T12:11:30.738Z,75.44
2018-07-20T12:12:30.976Z,62.74
2018-07-20T12:13:31.148Z,66.65
2018-07-20T12:14:31.337Z,63.23
2018-07-20T12:15:31.506Z,63.48
2018-07-20T12:16:31.683Z,62.50
2018-07-20T12:17:31.858Z,60.06
2018-07-20T12:18:32.045Z,66.16
2018-07-20T12:19:32.251Z,62.50
2018-07-20T12:20:32.432Z,56.40
2018-07-20T12:21:32.625Z,65.19
2018-07-20T12:22:32.826Z,60.55
2018-07-20T12:23:33.008Z,59.08
2018-07-20T12:24:33.175Z,60.30
2018-07-20T12:25:33.364Z,66.65
2018-07-20T12:26:33.574Z,61.28
2018-07-20T12:27:33.712Z,60.79
2018-07-20T12:28:33.923Z,71.53
2018-07-20T12:29:34.080Z,61.77
2018-07-20T12:30:34.253Z,65.19
2018-07-20T12:31:34.440Z,60.55
2018-07-20T12:32:34.617Z,55.42
2018-07-20T12:33:34.811Z,56.88
2018-07-20T12:34:35.002Z,63.48
2018-07-20T12:35:35.173Z,65.43
2018-07-20T12:36:35.365Z,71.04
2018-07-20T12:37:35.552Z,58.11
2018-07-20T12:38:35.749Z,59.08
2018-07-20T12:39:35.931Z,63.48
2018-07-20T12:40:36.121Z,57.62
2018-07-20T12:41:36.312Z,52.73
2018-07-20T12:42:36.544Z,56.64
2018-07-20T12:43:36.666Z,74.46
2018-07-20T12:44:36.856Z,79.59
2018-07-20T12:45:37.030Z,62.74
2018-07-20T12:46:37.268Z,68.60
2018-07-20T12:47:37.404Z,59.57
2018-07-20T12:48:37.603Z,64.94
2018-07-20T12:49:37.779Z,72.02
2018-07-20T12:50:37.966Z,70.07
2018-07-20T12:51:38.150Z,73.73
2018-07-20T12:52:38.344Z,62.50
2018-07-20T12:53:38.527Z,63.48
2018-07-20T12:54:38.706Z,63.96
2018-07-20T12:55:38.911Z,56.88
2018-07-20T12:56:39.066Z,57.37
2018-07-20T12:57:39.268Z,57.37
2018-07-20T12:58:39.524Z,63.96
2018-07-20T12:59:39.864Z,61.04
2018-07-20T13:00:39.815Z,61.28
2018-07-20T13:01:39.998Z,60.55
2018-07-20T13:02:40.190Z,79.35
2018-07-20T13:03:40.356Z,65.19
2018-07-20T13:04:40.560Z,57.86
2018-07-20T13:05:40.743Z,59.81
2018-07-20T13:06:41.171Z,61.28
2018-07-20T13:07:41.105Z,63.72
2018-07-20T13:08:41.302Z,63.23
2018-07-20T13:09:41.485Z,55.66
2018-07-20T13:10:41.674Z,57.62
2018-07-20T13:11:41.858Z,63.72
2018-07-20T13:12:42.049Z,63.96
2018-07-20T13:13:42.238Z,57.62
2018-07-20T13:14:42.424Z,62.74